Waco, MO (64869)

7:48 PM CDT on August 01, 2014 (GMT -0500)
Joplin Regional (KJLN) Elev 981 ft | 37.15 °N, 94.50 °W | Change Station

Current weather conditions updated 55 minutes ago

Clear
Clear
82 °F
Feels Like 83 °F
N
7
Wind Variable Wind from SSW

Tomorrow is forecast to be nearly the same temperature as today.

Today
High -- | Low -- °F
--% Chance of Precip.
Yesterday
High -- | Low -- °F
Precip. -- in
6:23 AM 8:25 PM
Waxing Crescent, 30% visible
Pressure 30.01 in
Visibility 10.0 miles
Clouds Clear
Heat Index 83 °F
Dew Point 61 °F
Humidity 49%
Rainfall 0.00 in
Snow Depth Not available.
UV 1 out of 12
Pollen 6.60 out of 12
Air Quality Not available.
Flu Activity Not available.
METAR KJLN 012353Z 20006KT 10SM CLR 28/16 A3004 RMK AO2 SLP162 T02780161 10294 20256 58009

More Conditions Fewer Conditions

Pressure 30.01 in
Visibility 10.0 miles
Clouds Clear
Heat Index 83 °F
Dew Point 61 °F
Humidity 49%
Rainfall 0.00 in
Snow Depth Not available.
UV 1 out of 12
Pollen 6.60 out of 12
Air Quality Not available.
Flu Activity Not available.
METAR KJLN 012353Z 20006KT 10SM CLR 28/16 A3004 RMK AO2 SLP162 T02780161 10294 20256 58009

More Conditions Fewer Conditions

10-Day Weather Forecast

Almanac

Astronomy

Aug. 01, 2014 Rise Set
Actual Time 6:23 AM CDT 8:25 PM CDT
Civil Twilight 5:54 AM CDT 8:54 PM CDT
Nautical Twilight 5:19 AM CDT 9:29 PM CDT
Astronomical Twilight 4:41 AM CDT 10:07 PM CDT
Moon 11:39 AM CDT (8/1) 11:19 PM CDT (8/1)
Length of Visible Light 15h 00m
Length of Day
14h 02m
Tomorrow will be 1m 49s shorter.
Waxing Crescent, 30% of the Moon is Illuminated
Today
Waxing Crescent
Aug 3
First Quarter
Aug 10
Full
Aug 17
Last Quarter
Aug 25
New

Today's Extremes

State Highs State Lows

Community

WunderPhotos

Upload Photos

1,739,777 photos uploaded!

Nearby

Snow Depth

Station Depth Elevation
No new snow has been reported.

Earthquake Activity

City Distance Mag. Time & Date
No recent earthquake activity has been reported nearby.
Minimum magnitude displayed is 2.5.

Coastal Water Temperatures

Place Temperature
No Stations Reporting

Nearby Weather Stations

Station Location Temp. Heat Index Dew Point Humidity Wind Precip. Elev Updated Type
ESE Cherokee Co Kansas, Columbus, KS 82.9 °F 86 °F 68 °F 60% SSW  at  4.0 mph 0.00 in / hr 951 ft 7:39 PM CDT Normal
Southwest Pittsburg, Kansas, Pittsburg, KS 82.2 °F 85 °F 66 °F 62% North  at  - - / hr 935 ft 7:35 PM CDT Normal
Mohaska, Joplin, MO 81.2 °F 83 °F 63 °F 55% SW  at  0.0 mph 0.00 in / hr 1010 ft 7:40 PM CDT Normal
Frontenac, KS 81.6 °F 84 °F 67 °F 61% SW  at  0.0 mph 0.00 in / hr 942 ft 7:48 PM CDT Rapid Fire
Frontenac KS, Frontenac, KS 91.5 °F 91 °F 58 °F 33% North  at  0.0 mph 0.00 in / hr 948 ft 6:24 PM CDT Rapid Fire
Frontenac Industrial Park, Frontenac, KS 84.2 °F 81 °F 22 °F 10% SSE  at  1.6 mph 0.00 in / hr 965 ft 7:48 PM CDT Rapid Fire

Show More Stations Show Fewer Stations